Impacts TAF Board
For situational awareness. Not to be used for flight planning purposes.
IDs:

KGTR - Golden Triangle Arpt, MS, US

Issued at 2322 UTC 22 Oct 2018
Updated at 0326 UTC 23 Oct 2018
Potential Impact None Slight Moderate High
Time<<23/16Z 23/17Z 23/18Z 23/19Z 23/20Z 23/21Z 23/22Z 23/23Z 24/00Z 24/01Z 24/02Z 24/03Z 24/04Z>>
Type PRVL PRVL PRVL PRVL PRVL PRVL PRVL PRVL
VIS >6 >6 >6 >6 >6 >6 >6 >6
CIG 250 250 250 250 250 250 250 250
Cover BKN BKN BKN BKN BKN BKN BKN BKN
FltCat VFR VFR VFR VFR VFR VFR VFR VFR
WX -- -- -- -- -- -- -- --
WDir 40 40 40 40 40 40 40 40
WSpd 3 3 3 3 3 3 3 3
WGst -- -- -- -- -- -- -- --
Raw TAF
KGTR 222322Z 2300/2324 04003KT P6SM BKN250

METAR Board
Radar Display
Forecast Discussion
For situational awareness. Not to be used for flight planning purposes.